createdAt,value
2019-05-25T00:00:36.966Z,16.27
2019-05-25T00:03:07.272Z,17.43
2019-05-25T00:05:37.616Z,16.67
2019-05-25T00:08:07.961Z,17.20
2019-05-25T00:10:38.345Z,17.15
2019-05-25T00:13:08.631Z,17.27
2019-05-25T00:15:39.367Z,17.10
2019-05-25T00:18:09.649Z,16.33
2019-05-25T00:20:39.835Z,17.40
2019-05-25T00:23:10.500Z,16.85
2019-05-25T00:25:40.773Z,16.10
2019-05-25T00:28:11.095Z,16.90
2019-05-25T00:30:41.586Z,15.20
2019-05-25T00:33:12.033Z,16.43
2019-05-25T00:35:42.963Z,16.20
2019-05-25T00:38:13.299Z,15.70
2019-05-25T00:40:43.657Z,14.90
2019-05-25T00:43:13.955Z,14.50
2019-05-25T00:45:44.287Z,13.93
2019-05-25T00:48:14.554Z,13.40
2019-05-25T00:50:45.261Z,14.50
2019-05-25T00:53:15.545Z,14.73
2019-05-25T00:55:45.995Z,14.50
2019-05-25T00:58:16.404Z,14.43
2019-05-25T01:00:47.065Z,13.93
2019-05-25T01:03:17.641Z,14.60
2019-05-25T01:05:48.117Z,14.47
2019-05-25T01:08:18.435Z,15.20
2019-05-25T01:10:48.619Z,14.70
2019-05-25T01:13:19.384Z,15.20
2019-05-25T01:15:49.663Z,15.43
2019-05-25T01:18:20.699Z,16.40
2019-05-25T01:20:51.175Z,16.43
2019-05-25T01:23:21.441Z,15.73
2019-05-25T01:25:51.705Z,15.53
2019-05-25T01:28:21.996Z,16.23
2019-05-25T01:30:52.792Z,16.83
2019-05-25T01:33:23.130Z,16.87
2019-05-25T01:35:53.421Z,16.37
2019-05-25T01:38:23.677Z,16.47
2019-05-25T01:40:56.251Z,17.87
2019-05-25T01:43:26.549Z,17.20
2019-05-25T01:45:57.207Z,17.90
2019-05-25T01:48:27.677Z,18.07
2019-05-25T01:50:57.856Z,17.23
2019-05-25T01:53:28.232Z,17.80
2019-05-25T01:55:58.642Z,18.17
2019-05-25T01:58:29.171Z,18.90
2019-05-25T02:00:59.420Z,18.90
2019-05-25T02:03:29.789Z,20.37
2019-05-25T02:06:00.149Z,19.13
2019-05-25T02:08:30.442Z,19.70
2019-05-25T02:11:00.713Z,19.57
2019-05-25T02:13:31.238Z,20.87
2019-05-25T02:16:01.513Z,20.87
2019-05-25T02:18:32.868Z,20.53
2019-05-25T02:21:03.156Z,21.30
2019-05-25T02:23:33.455Z,21.00
2019-05-25T02:26:03.826Z,22.07
2019-05-25T02:28:34.074Z,21.03
2019-05-25T02:31:04.448Z,20.60
2019-05-25T02:33:34.748Z,19.33
2019-05-25T02:36:04.973Z,19.73
2019-05-25T02:38:35.846Z,19.40
2019-05-25T02:41:07.298Z,19.57
2019-05-25T02:43:37.752Z,21.40
2019-05-25T02:46:08.110Z,21.07
2019-05-25T02:48:38.381Z,22.73
2019-05-25T02:51:08.750Z,24.53
2019-05-25T02:53:38.922Z,26.80
2019-05-25T02:56:09.188Z,26.60
2019-05-25T02:58:39.462Z,27.67
2019-05-25T03:01:09.980Z,27.50
2019-05-25T03:03:40.232Z,28.37
2019-05-25T03:06:11.918Z,29.13
2019-05-25T03:08:44.278Z,30.50
2019-05-25T03:11:14.572Z,30.27
2019-05-25T03:13:46.039Z,30.20
2019-05-25T03:16:17.174Z,29.07
2019-05-25T03:18:47.370Z,29.27
2019-05-25T03:21:17.644Z,29.00
2019-05-25T03:23:47.899Z,28.67
2019-05-25T03:26:19.214Z,28.40
2019-05-25T03:28:49.941Z,29.57
2019-05-25T03:31:20.227Z,30.00
2019-05-25T03:33:50.535Z,31.07
2019-05-25T03:36:21.151Z,28.23
2019-05-25T03:38:51.488Z,28.03
2019-05-25T03:41:21.777Z,28.10
2019-05-25T03:43:52.048Z,27.03
2019-05-25T03:46:22.374Z,26.47
2019-05-25T03:48:52.762Z,25.77
2019-05-25T03:51:22.984Z,25.40
2019-05-25T03:53:53.253Z,25.27
2019-05-25T03:56:23.538Z,24.57
2019-05-25T03:58:54.059Z,24.57
2019-05-25T04:01:24.171Z,25.23
2019-05-25T04:03:55.381Z,23.40
2019-05-25T04:06:25.546Z,23.87
2019-05-25T04:08:55.829Z,25.50
2019-05-25T04:11:26.090Z,26.27
2019-05-25T04:13:56.524Z,25.73
2019-05-25T04:16:26.779Z,25.73
2019-05-25T04:18:57.104Z,25.67
2019-05-25T04:21:27.400Z,22.90
2019-05-25T04:23:57.649Z,22.43
2019-05-25T04:26:27.811Z,22.70
2019-05-25T04:28:58.811Z,24.23
2019-05-25T04:31:29.101Z,23.87
2019-05-25T04:33:59.342Z,23.23
2019-05-25T04:36:29.590Z,22.33
2019-05-25T04:39:00.587Z,24.23
2019-05-25T04:41:32.349Z,22.43
2019-05-25T04:44:02.613Z,23.80
2019-05-25T04:46:32.887Z,23.80
2019-05-25T04:49:03.157Z,23.43
2019-05-25T04:51:33.487Z,23.30
2019-05-25T04:54:04.117Z,23.53
2019-05-25T04:56:39.533Z,24.37
2019-05-25T04:59:06.949Z,23.57
2019-05-25T05:01:37.200Z,23.47
2019-05-25T05:04:08.417Z,23.23
2019-05-25T05:06:38.588Z,20.77
2019-05-25T05:09:09.449Z,20.80
2019-05-25T05:11:39.608Z,22.00
2019-05-25T05:14:09.891Z,20.03
2019-05-25T05:16:40.313Z,18.63
2019-05-25T05:19:11.003Z,19.00
2019-05-25T05:21:41.304Z,17.07
2019-05-25T05:24:12.029Z,17.37
2019-05-25T05:26:54.719Z,16.30
2019-05-25T05:29:14.311Z,14.23
2019-05-25T05:31:44.874Z,14.40
2019-05-25T05:34:15.128Z,14.20
2019-05-25T05:36:46.711Z,14.07
2019-05-25T05:39:17.568Z,14.37
2019-05-25T05:41:50.181Z,14.17
2019-05-25T05:44:23.283Z,13.50
2019-05-25T05:46:55.948Z,14.67
2019-05-25T05:49:29.882Z,14.10
2019-05-25T05:52:03.252Z,12.33
2019-05-25T05:54:34.631Z,13.53
2019-05-25T05:57:12.313Z,12.83
2019-05-25T05:59:36.852Z,11.03
2019-05-25T06:02:07.111Z,12.37
2019-05-25T06:04:37.895Z,11.33
2019-05-25T06:07:08.126Z,10.07
2019-05-25T06:09:38.742Z,8.90
2019-05-25T06:12:09.212Z,9.33
2019-05-25T06:14:39.842Z,9.18
2019-05-25T06:17:10.105Z,10.03
2019-05-25T06:19:40.564Z,8.08
2019-05-25T06:22:10.854Z,7.55
2019-05-25T06:24:41.150Z,8.70
2019-05-25T06:27:24.631Z,7.83
2019-05-25T06:29:43.354Z,7.08
2019-05-25T06:32:13.812Z,6.80
2019-05-25T06:34:44.085Z,6.65
2019-05-25T06:37:14.418Z,7.20
2019-05-25T06:39:44.778Z,7.50
2019-05-25T06:42:15.126Z,6.70
2019-05-25T06:44:45.406Z,6.65
2019-05-25T06:47:15.688Z,6.33
2019-05-25T06:49:46.028Z,6.60
2019-05-25T06:52:19.309Z,7.13
2019-05-25T06:54:49.649Z,6.67
2019-05-25T06:57:20.634Z,6.37
2019-05-25T06:59:51.005Z,7.00
2019-05-25T07:02:22.710Z,6.35
2019-05-25T07:04:53.021Z,7.45
2019-05-25T07:07:26.135Z,6.47
2019-05-25T07:09:56.333Z,6.40
2019-05-25T07:12:26.885Z,6.00
2019-05-25T07:14:57.161Z,5.57
2019-05-25T07:17:27.349Z,5.43
2019-05-25T07:19:58.207Z,5.50
2019-05-25T07:22:28.446Z,5.35
2019-05-25T07:24:58.749Z,5.42
2019-05-25T07:27:29.042Z,5.30
2019-05-25T07:30:02.831Z,4.85
2019-05-25T07:32:33.052Z,5.10
2019-05-25T07:35:03.315Z,4.50
2019-05-25T07:37:34.492Z,4.60
2019-05-25T07:40:05.754Z,4.42
2019-05-25T07:42:36.051Z,4.45
2019-05-25T07:45:07.333Z,3.90
2019-05-25T07:47:37.615Z,3.17
2019-05-25T07:50:09.073Z,4.30
2019-05-25T07:52:40.559Z,3.85
2019-05-25T07:55:11.249Z,3.70
2019-05-25T07:57:41.523Z,4.03
2019-05-25T08:00:13.093Z,4.72
2019-05-25T08:02:43.411Z,3.58
2019-05-25T08:05:14.393Z,3.90
2019-05-25T08:07:44.717Z,3.03
2019-05-25T08:10:15.913Z,3.50
2019-05-25T08:12:46.103Z,2.80
2019-05-25T08:15:16.603Z,3.70
2019-05-25T08:17:46.857Z,2.85
2019-05-25T08:20:17.723Z,3.15
2019-05-25T08:22:49.291Z,3.22
2019-05-25T08:25:19.576Z,2.77
2019-05-25T08:27:49.981Z,2.65
2019-05-25T08:30:20.214Z,2.90
2019-05-25T08:32:50.533Z,2.90
2019-05-25T08:35:20.697Z,3.33
2019-05-25T08:37:51.035Z,3.20
2019-05-25T08:40:21.544Z,2.70
2019-05-25T08:42:51.857Z,3.00
2019-05-25T08:45:25.794Z,3.12
2019-05-25T08:47:57.077Z,3.40
2019-05-25T08:50:37.841Z,3.12
2019-05-25T08:52:59.019Z,2.90
2019-05-25T08:55:29.639Z,3.17
2019-05-25T08:57:59.985Z,2.62
2019-05-25T09:00:30.260Z,2.80
2019-05-25T09:03:00.826Z,3.10
2019-05-25T09:05:31.137Z,2.87
2019-05-25T09:08:01.387Z,3.12
2019-05-25T09:10:33.057Z,3.12
2019-05-25T09:13:03.357Z,3.02
2019-05-25T09:15:33.639Z,3.10
2019-05-25T09:18:03.905Z,2.90
2019-05-25T09:20:34.227Z,2.90
2019-05-25T09:23:04.547Z,2.67
2019-05-25T09:25:34.881Z,3.10
2019-05-25T09:28:05.254Z,2.90
2019-05-25T09:30:36.379Z,2.85
2019-05-25T09:33:06.650Z,3.02
2019-05-25T09:35:36.971Z,3.10
2019-05-25T09:38:07.139Z,3.30
2019-05-25T09:40:37.452Z,3.37
2019-05-25T09:43:07.797Z,3.27
2019-05-25T09:45:38.358Z,4.08
2019-05-25T09:48:08.796Z,4.22
2019-05-25T09:50:39.066Z,4.50
2019-05-25T09:53:10.118Z,3.85
2019-05-25T09:55:40.377Z,3.70
2019-05-25T09:58:10.694Z,4.05
2019-05-25T10:00:42.140Z,3.85
2019-05-25T10:03:12.646Z,4.15
2019-05-25T10:05:43.264Z,3.87
2019-05-25T10:08:13.544Z,4.40
2019-05-25T10:10:44.068Z,4.00
2019-05-25T10:13:14.594Z,3.30
2019-05-25T10:15:44.888Z,3.50
2019-05-25T10:18:15.412Z,4.03
2019-05-25T10:20:45.711Z,3.72
2019-05-25T10:23:15.988Z,3.58
2019-05-25T10:25:46.552Z,3.65
2019-05-25T10:28:17.079Z,3.35
2019-05-25T10:30:48.680Z,3.70
2019-05-25T10:33:21.737Z,3.50
2019-05-25T10:35:50.792Z,4.33
2019-05-25T10:38:21.342Z,3.75
2019-05-25T10:40:53.716Z,3.52
2019-05-25T10:43:23.994Z,4.17
2019-05-25T10:45:54.371Z,3.50
2019-05-25T10:48:25.520Z,3.15
2019-05-25T10:50:56.824Z,4.28
2019-05-25T10:53:27.079Z,3.92
2019-05-25T10:56:03.672Z,3.58
2019-05-25T10:58:35.605Z,3.83
2019-05-25T11:01:05.932Z,3.83
2019-05-25T11:03:36.205Z,3.52
2019-05-25T11:06:06.456Z,3.85
2019-05-25T11:08:36.782Z,3.72
2019-05-25T11:11:08.058Z,3.40
2019-05-25T11:13:38.466Z,3.87
2019-05-25T11:16:10.036Z,3.70
2019-05-25T11:18:40.334Z,3.70
2019-05-25T11:21:10.506Z,3.98
2019-05-25T11:23:41.021Z,3.92
2019-05-25T11:26:11.259Z,3.70
2019-05-25T11:28:41.456Z,3.60
2019-05-25T11:31:11.715Z,3.98
2019-05-25T11:33:42.500Z,3.83
2019-05-25T11:36:12.951Z,4.25
2019-05-25T11:38:43.320Z,3.98
2019-05-25T11:41:13.668Z,4.45
2019-05-25T11:43:43.857Z,4.45
2019-05-25T11:46:14.091Z,3.80
2019-05-25T11:48:44.573Z,4.22
2019-05-25T11:51:14.863Z,4.17
2019-05-25T11:53:45.133Z,3.65
2019-05-25T11:56:15.605Z,3.95
2019-05-25T11:58:47.773Z,3.35
2019-05-25T12:01:18.643Z,3.70
2019-05-25T12:03:48.937Z,3.80
2019-05-25T12:06:19.327Z,3.47
2019-05-25T12:08:49.591Z,3.60
2019-05-25T12:11:19.840Z,3.37
2019-05-25T12:13:50.675Z,2.98
2019-05-25T12:16:20.967Z,3.20
2019-05-25T12:18:51.285Z,2.90
2019-05-25T12:21:21.762Z,3.12
2019-05-25T12:23:52.005Z,3.00
2019-05-25T12:26:22.283Z,3.10
2019-05-25T12:28:52.774Z,3.00
2019-05-25T12:31:23.145Z,3.08
2019-05-25T12:33:53.441Z,3.20
2019-05-25T12:36:24.007Z,3.20
2019-05-25T12:38:54.195Z,3.22
2019-05-25T12:41:24.635Z,3.17
2019-05-25T12:43:54.883Z,3.60
2019-05-25T12:46:25.229Z,3.50
2019-05-25T12:48:55.408Z,3.12
2019-05-25T12:51:26.143Z,3.22
2019-05-25T12:53:56.483Z,3.08
2019-05-25T12:56:26.809Z,3.22
2019-05-25T12:58:57.420Z,3.08
2019-05-25T13:01:27.579Z,3.50
2019-05-25T13:03:58.103Z,3.37
2019-05-25T13:06:28.373Z,3.70
2019-05-25T13:08:58.677Z,3.65
2019-05-25T13:11:28.958Z,3.65
2019-05-25T13:14:11.987Z,3.20
2019-05-25T13:16:32.048Z,3.95
2019-05-25T13:19:02.335Z,3.92
2019-05-25T13:21:32.801Z,4.08
2019-05-25T13:24:03.299Z,3.85
2019-05-25T13:26:34.236Z,4.90
2019-05-25T13:29:04.751Z,5.53
2019-05-25T13:31:35.029Z,6.45
2019-05-25T13:34:05.765Z,5.03
2019-05-25T13:36:36.217Z,6.80
2019-05-25T13:39:07.565Z,4.90
2019-05-25T13:41:37.832Z,5.30
2019-05-25T13:44:08.183Z,4.92
2019-05-25T13:46:38.452Z,5.60
2019-05-25T13:49:08.788Z,5.28
2019-05-25T13:51:39.338Z,4.47
2019-05-25T13:54:10.325Z,5.95
2019-05-25T13:56:40.692Z,5.95
2019-05-25T13:59:10.966Z,5.40
2019-05-25T14:01:41.329Z,6.42
2019-05-25T14:04:11.702Z,6.65
2019-05-25T14:06:42.282Z,6.33
2019-05-25T14:09:15.680Z,8.03
2019-05-25T14:11:44.458Z,7.20
2019-05-25T14:14:14.635Z,6.67
2019-05-25T14:16:44.887Z,7.30
2019-05-25T14:19:15.142Z,7.00
2019-05-25T14:21:45.840Z,7.15
2019-05-25T14:24:16.118Z,7.37
2019-05-25T14:26:46.375Z,6.85
2019-05-25T14:29:16.713Z,6.75
2019-05-25T14:31:46.936Z,6.75
2019-05-25T14:34:18.075Z,6.70
2019-05-25T14:36:48.704Z,7.42
2019-05-25T14:39:18.961Z,7.08
2019-05-25T14:41:49.276Z,8.35
2019-05-25T14:44:19.563Z,7.53
2019-05-25T14:46:49.891Z,6.92
2019-05-25T14:49:20.177Z,7.65
2019-05-25T14:51:50.510Z,7.35
2019-05-25T14:54:20.810Z,5.97
2019-05-25T14:56:51.050Z,6.50
2019-05-25T14:59:21.616Z,6.12
2019-05-25T15:02:01.884Z,6.75
2019-05-25T15:04:23.866Z,5.80
2019-05-25T15:06:54.440Z,6.75
2019-05-25T15:09:24.722Z,6.67
2019-05-25T15:11:55.018Z,6.33
2019-05-25T15:14:25.734Z,6.12
2019-05-25T15:16:55.983Z,5.10
2019-05-25T15:19:26.477Z,5.65
2019-05-25T15:21:56.838Z,5.55
2019-05-25T15:24:27.527Z,5.20
2019-05-25T15:26:58.930Z,4.50
2019-05-25T15:29:29.988Z,4.25
2019-05-25T15:32:00.274Z,4.08
2019-05-25T15:34:30.746Z,4.45
2019-05-25T15:37:00.971Z,3.87
2019-05-25T15:39:31.547Z,4.50
2019-05-25T15:42:01.825Z,3.80
2019-05-25T15:44:32.144Z,3.83
2019-05-25T15:47:04.895Z,3.40
2019-05-25T15:49:34.527Z,3.00
2019-05-25T15:52:05.401Z,3.00
2019-05-25T15:54:35.758Z,3.30
2019-05-25T15:57:06.077Z,3.02
2019-05-25T15:59:36.425Z,2.90
2019-05-25T16:02:07.601Z,2.60
2019-05-25T16:04:38.158Z,2.83
2019-05-25T16:07:08.435Z,2.45
2019-05-25T16:09:38.684Z,2.50
2019-05-25T16:12:08.979Z,2.50
2019-05-25T16:14:39.310Z,2.27
2019-05-25T16:17:09.447Z,2.10
2019-05-25T16:19:40.539Z,1.90
2019-05-25T16:22:10.790Z,1.80
2019-05-25T16:24:41.066Z,2.00
2019-05-25T16:27:11.335Z,2.62
2019-05-25T16:29:41.662Z,1.80
2019-05-25T16:32:11.930Z,1.70
2019-05-25T16:34:42.385Z,1.80
2019-05-25T16:37:12.733Z,2.20
2019-05-25T16:39:43.219Z,1.67
2019-05-25T16:42:13.487Z,1.90
2019-05-25T16:44:43.762Z,1.95
2019-05-25T16:47:14.008Z,2.00
2019-05-25T16:49:44.186Z,2.02
2019-05-25T16:52:15.706Z,2.08
2019-05-25T16:54:45.989Z,1.70
2019-05-25T16:57:16.238Z,1.70
2019-05-25T16:59:46.559Z,1.80
2019-05-25T17:02:16.912Z,1.70
2019-05-25T17:04:47.178Z,1.47
2019-05-25T17:07:17.777Z,2.20
2019-05-25T17:09:49.167Z,1.80
2019-05-25T17:12:19.944Z,1.80
2019-05-25T17:14:50.218Z,2.58
2019-05-25T17:17:20.462Z,2.55
2019-05-25T17:19:51.862Z,2.08
2019-05-25T17:22:22.112Z,2.40
2019-05-25T17:24:52.599Z,2.50
2019-05-25T17:27:23.004Z,2.52
2019-05-25T17:29:53.669Z,2.42
2019-05-25T17:32:23.974Z,2.60
2019-05-25T17:34:55.348Z,2.52
2019-05-25T17:37:25.626Z,2.60
2019-05-25T17:39:56.254Z,2.20
2019-05-25T17:42:26.642Z,2.50
2019-05-25T17:44:56.965Z,2.12
2019-05-25T17:47:27.165Z,2.20
2019-05-25T17:49:57.459Z,2.30
2019-05-25T17:52:27.734Z,2.40
2019-05-25T17:54:58.346Z,2.10
2019-05-25T17:57:28.561Z,2.72
2019-05-25T17:59:59.581Z,2.10
2019-05-25T18:02:30.558Z,2.22
2019-05-25T18:05:00.856Z,2.35
2019-05-25T18:07:31.234Z,2.27
2019-05-25T18:10:01.512Z,2.47
2019-05-25T18:12:31.776Z,2.30
2019-05-25T18:15:02.072Z,2.47
2019-05-25T18:17:32.426Z,2.60
2019-05-25T18:20:02.902Z,2.40
2019-05-25T18:22:33.154Z,2.60
2019-05-25T18:25:03.448Z,2.45
2019-05-25T18:27:33.665Z,2.62
2019-05-25T18:30:06.261Z,2.50
2019-05-25T18:32:36.601Z,2.42
2019-05-25T18:35:07.475Z,2.50
2019-05-25T18:37:38.268Z,2.20
2019-05-25T18:40:09.427Z,2.05
2019-05-25T18:42:42.433Z,1.80
2019-05-25T18:45:13.732Z,2.25
2019-05-25T18:47:44.186Z,2.08
2019-05-25T18:50:15.468Z,2.17
2019-05-25T18:52:45.808Z,2.12
2019-05-25T18:55:16.888Z,2.60
2019-05-25T18:57:47.639Z,2.10
2019-05-25T19:00:19.186Z,2.05
2019-05-25T19:02:49.466Z,2.30
2019-05-25T19:05:20.625Z,2.05
2019-05-25T19:07:51.086Z,1.92
2019-05-25T19:10:21.946Z,2.10
2019-05-25T19:12:52.460Z,2.30
2019-05-25T19:15:23.082Z,1.98
2019-05-25T19:17:55.349Z,1.92
2019-05-25T19:20:26.136Z,2.30
2019-05-25T19:22:56.410Z,2.10
2019-05-25T19:25:26.776Z,1.98
2019-05-25T19:27:57.168Z,2.37
2019-05-25T19:30:27.340Z,2.92
2019-05-25T19:32:58.946Z,2.40
2019-05-25T19:35:29.238Z,2.60
2019-05-25T19:37:59.827Z,2.40
2019-05-25T19:40:30.466Z,2.52
2019-05-25T19:43:01.036Z,2.70
2019-05-25T19:45:32.846Z,2.63
2019-05-25T19:48:08.243Z,2.40
2019-05-25T19:50:39.645Z,2.80
2019-05-25T19:53:10.295Z,2.70
2019-05-25T19:55:41.773Z,3.17
2019-05-25T19:58:12.153Z,3.08
2019-05-25T20:00:42.974Z,3.20
2019-05-25T20:03:13.369Z,3.50
2019-05-25T20:05:43.979Z,3.62
2019-05-25T20:08:14.227Z,3.55
2019-05-25T20:10:44.629Z,3.40
2019-05-25T20:13:14.962Z,3.62
2019-05-25T20:15:45.575Z,3.70
2019-05-25T20:18:16.057Z,3.95
2019-05-25T20:20:46.336Z,4.20
2019-05-25T20:23:16.963Z,3.67
2019-05-25T20:25:47.242Z,4.42
2019-05-25T20:28:17.453Z,4.23
2019-05-25T20:30:47.845Z,4.10
2019-05-25T20:33:27.496Z,3.67
2019-05-25T20:35:50.155Z,3.97
2019-05-25T20:38:20.467Z,4.37
2019-05-25T20:40:51.041Z,4.00
2019-05-25T20:43:21.351Z,4.28
2019-05-25T20:45:51.700Z,4.40
2019-05-25T20:48:22.006Z,4.50
2019-05-25T20:50:52.383Z,4.40
2019-05-25T20:53:22.695Z,4.30
2019-05-25T20:55:53.045Z,4.50
2019-05-25T20:58:23.514Z,4.17
2019-05-25T21:00:53.797Z,4.00
2019-05-25T21:03:24.116Z,4.17
2019-05-25T21:05:54.417Z,4.63
2019-05-25T21:08:24.691Z,4.67
2019-05-25T21:10:54.964Z,4.83
2019-05-25T21:13:25.245Z,5.10
2019-05-25T21:15:55.739Z,4.53
2019-05-25T21:18:27.164Z,5.10
2019-05-25T21:20:57.641Z,5.50
2019-05-25T21:23:29.238Z,6.17
2019-05-25T21:25:59.590Z,5.50
2019-05-25T21:28:30.104Z,5.23
2019-05-25T21:31:03.264Z,6.57
2019-05-25T21:33:33.924Z,6.73
2019-05-25T21:36:08.951Z,6.47
2019-05-25T21:38:37.458Z,6.60
2019-05-25T21:41:09.631Z,7.07
2019-05-25T21:43:40.772Z,6.70
2019-05-25T21:46:11.352Z,6.30
2019-05-25T21:48:42.025Z,6.10
2019-05-25T21:51:12.824Z,5.70
2019-05-25T21:53:43.746Z,6.00
2019-05-25T21:56:14.758Z,5.67
2019-05-25T21:58:45.658Z,5.90
2019-05-25T22:01:16.862Z,5.63
2019-05-25T22:03:47.600Z,6.23
2019-05-25T22:06:24.174Z,5.27
2019-05-25T22:08:52.000Z,6.13
2019-05-25T22:11:22.459Z,5.90
2019-05-25T22:13:53.390Z,5.83
2019-05-25T22:16:24.012Z,5.47
2019-05-25T22:18:55.093Z,6.13
2019-05-25T22:21:25.430Z,5.73
2019-05-25T22:23:56.042Z,5.73
2019-05-25T22:26:27.419Z,5.73
2019-05-25T22:28:57.982Z,5.20
2019-05-25T22:31:28.250Z,5.30
2019-05-25T22:33:59.410Z,5.37
2019-05-25T22:36:39.583Z,6.67
2019-05-25T22:39:03.135Z,6.37
2019-05-25T22:41:34.187Z,6.03
2019-05-25T22:44:04.988Z,6.30
2019-05-25T22:46:35.319Z,5.80
2019-05-25T22:49:06.213Z,5.80
2019-05-25T22:51:36.473Z,6.10
2019-05-25T22:54:06.704Z,5.83
2019-05-25T22:56:36.974Z,5.90
2019-05-25T22:59:08.292Z,6.13
2019-05-25T23:01:40.104Z,6.60
2019-05-25T23:04:10.338Z,6.30
2019-05-25T23:06:56.684Z,6.27
2019-05-25T23:09:13.238Z,6.33
2019-05-25T23:11:44.037Z,6.87
2019-05-25T23:14:14.497Z,7.70
2019-05-25T23:16:44.734Z,7.47
2019-05-25T23:19:15.030Z,7.73
2019-05-25T23:21:45.265Z,8.73
2019-05-25T23:24:15.565Z,8.27
2019-05-25T23:26:46.021Z,7.43
2019-05-25T23:29:16.295Z,7.80
2019-05-25T23:31:47.475Z,7.10
2019-05-25T23:34:17.802Z,7.80
2019-05-25T23:36:49.682Z,7.60
2019-05-25T23:39:19.953Z,8.27
2019-05-25T23:41:50.219Z,7.57
2019-05-25T23:44:20.517Z,8.10
2019-05-25T23:46:51.020Z,8.20
2019-05-25T23:49:21.681Z,8.03
2019-05-25T23:51:51.931Z,8.47
2019-05-25T23:54:23.596Z,8.10
2019-05-25T23:56:53.759Z,7.80
2019-05-25T23:59:24.081Z,8.23
